METAR Torp

ENTO 202320Z AUTO 26006KT 230V310 9999 NCD 14/09 Q1017

METAR Gardermoen

ENGM 202320Z 19009KT CAVOK 12/10 Q1015

Webcam Kjeller